sensor_id;sensor_type;location;lat;lon;timestamp;pressure;altitude;pressure_sealevel;temperature;humidity
64228;BME280;50546;49.146;10.616;2022-10-26T00:00:25;96435.41;;;11.19;81.27
64228;BME280;50546;49.146;10.616;2022-10-26T00:02:53;96446.19;;;11.27;80.34
64228;BME280;50546;49.146;10.616;2022-10-26T00:05:18;96427.94;;;11.24;80.17
64228;BME280;50546;49.146;10.616;2022-10-26T00:07:43;96431.75;;;11.15;80.22
64228;BME280;50546;49.146;10.616;2022-10-26T00:10:09;96426.34;;;11.15;80.76
64228;BME280;50546;49.146;10.616;2022-10-26T00:12:34;96428.75;;;11.16;80.20
64228;BME280;50546;49.146;10.616;2022-10-26T00:14:59;96416.38;;;11.15;80.38
64228;BME280;50546;49.146;10.616;2022-10-26T00:17:24;96411.63;;;11.12;80.46
64228;BME280;50546;49.146;10.616;2022-10-26T00:19:50;96397.66;;;11.10;80.51
64228;BME280;50546;49.146;10.616;2022-10-26T00:22:15;96413.03;;;11.09;79.86
64228;BME280;50546;49.146;10.616;2022-10-26T00:24:40;96407.97;;;11.17;80.01
64228;BME280;50546;49.146;10.616;2022-10-26T00:27:06;96411.44;;;11.17;80.24
64228;BME280;50546;49.146;10.616;2022-10-26T00:29:31;96402.91;;;11.15;80.29
64228;BME280;50546;49.146;10.616;2022-10-26T00:31:56;96406.53;;;11.11;81.13
64228;BME280;50546;49.146;10.616;2022-10-26T00:34:21;96406.22;;;11.21;80.55
64228;BME280;50546;49.146;10.616;2022-10-26T00:36:47;96400.69;;;11.26;79.77
64228;BME280;50546;49.146;10.616;2022-10-26T00:39:12;96403.34;;;11.17;80.26
64228;BME280;50546;49.146;10.616;2022-10-26T00:41:38;96399.69;;;11.22;80.31
64228;BME280;50546;49.146;10.616;2022-10-26T00:47:17;96390.66;;;10.92;81.24
64228;BME280;50546;49.146;10.616;2022-10-26T00:49:44;96397.94;;;10.82;81.73
64228;BME280;50546;49.146;10.616;2022-10-26T00:52:12;96409.19;;;10.76;82.00
64228;BME280;50546;49.146;10.616;2022-10-26T00:54:38;96403.63;;;10.81;81.28
64228;BME280;50546;49.146;10.616;2022-10-26T00:57:04;96400.94;;;10.81;81.56
64228;BME280;50546;49.146;10.616;2022-10-26T00:59:29;96400.16;;;10.80;82.53
64228;BME280;50546;49.146;10.616;2022-10-26T01:01:55;96398.75;;;10.83;81.73
64228;BME280;50546;49.146;10.616;2022-10-26T01:04:20;96392.56;;;10.82;82.37
64228;BME280;50546;49.146;10.616;2022-10-26T01:06:46;96406.97;;;10.78;82.24
64228;BME280;50546;49.146;10.616;2022-10-26T01:09:12;96409.81;;;10.81;81.67
64228;BME280;50546;49.146;10.616;2022-10-26T01:11:37;96413.47;;;10.85;81.63
64228;BME280;50546;49.146;10.616;2022-10-26T01:14:05;96415.53;;;10.80;81.03
64228;BME280;50546;49.146;10.616;2022-10-26T01:29:48;96432.09;;;11.30;86.25
64228;BME280;50546;49.146;10.616;2022-10-26T01:32:26;96421.91;;;11.62;84.61
64228;BME280;50546;49.146;10.616;2022-10-26T01:35:10;96416.81;;;11.61;83.15
64228;BME280;50546;49.146;10.616;2022-10-26T01:37:47;96404.59;;;11.80;83.88
64228;BME280;50546;49.146;10.616;2022-10-26T01:40:26;96394.41;;;11.95;82.65
64228;BME280;50546;49.146;10.616;2022-10-26T01:42:56;96397.44;;;11.76;82.06
64228;BME280;50546;49.146;10.616;2022-10-26T01:45:23;96407.75;;;11.65;82.38
64228;BME280;50546;49.146;10.616;2022-10-26T01:47:50;96402.72;;;11.55;82.59
64228;BME280;50546;49.146;10.616;2022-10-26T01:50:17;96400.00;;;11.46;82.70
64228;BME280;50546;49.146;10.616;2022-10-26T01:52:43;96403.19;;;11.57;84.58
64228;BME280;50546;49.146;10.616;2022-10-26T02:00:59;96400.19;;;11.59;83.62
64228;BME280;50546;49.146;10.616;2022-10-26T02:09:17;96385.53;;;11.68;84.22
64228;BME280;50546;49.146;10.616;2022-10-26T02:11:47;96387.25;;;11.81;85.10
64228;BME280;50546;49.146;10.616;2022-10-26T02:16:53;96386.03;;;11.88;82.68
64228;BME280;50546;49.146;10.616;2022-10-26T02:19:31;96385.84;;;11.93;85.13
64228;BME280;50546;49.146;10.616;2022-10-26T02:22:06;96382.16;;;11.97;85.42
64228;BME280;50546;49.146;10.616;2022-10-26T02:24:36;96382.59;;;12.08;85.85
64228;BME280;50546;49.146;10.616;2022-10-26T02:27:03;96382.88;;;12.15;85.16
64228;BME280;50546;49.146;10.616;2022-10-26T02:29:31;96382.81;;;12.33;84.63
64228;BME280;50546;49.146;10.616;2022-10-26T02:31:58;96390.09;;;12.41;84.13
64228;BME280;50546;49.146;10.616;2022-10-26T02:34:27;96395.59;;;12.53;83.30
64228;BME280;50546;49.146;10.616;2022-10-26T02:36:56;96405.22;;;12.71;82.59
64228;BME280;50546;49.146;10.616;2022-10-26T02:39:25;96401.44;;;12.64;81.09
64228;BME280;50546;49.146;10.616;2022-10-26T02:41:52;96403.72;;;12.53;80.98
64228;BME280;50546;49.146;10.616;2022-10-26T02:46:47;96399.19;;;12.66;80.98
64228;BME280;50546;49.146;10.616;2022-10-26T02:49:12;96398.88;;;12.67;81.69
64228;BME280;50546;49.146;10.616;2022-10-26T02:57:23;96390.63;;;12.64;80.86
64228;BME280;50546;49.146;10.616;2022-10-26T02:59:52;96391.13;;;12.57;81.05
64228;BME280;50546;49.146;10.616;2022-10-26T03:02:19;96385.53;;;12.62;81.08
64228;BME280;50546;49.146;10.616;2022-10-26T03:04:46;96376.84;;;12.57;80.85
64228;BME280;50546;49.146;10.616;2022-10-26T03:07:19;96381.97;;;12.49;81.54
64228;BME280;50546;49.146;10.616;2022-10-26T03:09:45;96383.81;;;12.58;80.68
64228;BME280;50546;49.146;10.616;2022-10-26T03:12:10;96377.19;;;12.46;81.80
64228;BME280;50546;49.146;10.616;2022-10-26T03:14:35;96383.53;;;12.50;81.71
64228;BME280;50546;49.146;10.616;2022-10-26T03:17:01;96380.13;;;12.62;81.06
64228;BME280;50546;49.146;10.616;2022-10-26T03:19:26;96383.25;;;12.73;81.21
64228;BME280;50546;49.146;10.616;2022-10-26T03:21:51;96375.13;;;12.73;81.44
64228;BME280;50546;49.146;10.616;2022-10-26T03:24:16;96368.28;;;12.75;81.39
64228;BME280;50546;49.146;10.616;2022-10-26T03:26:42;96370.34;;;12.79;81.19
64228;BME280;50546;49.146;10.616;2022-10-26T03:29:07;96364.19;;;12.69;80.82
64228;BME280;50546;49.146;10.616;2022-10-26T03:31:33;96360.06;;;12.63;81.35
64228;BME280;50546;49.146;10.616;2022-10-26T03:33:58;96368.28;;;12.75;80.97
64228;BME280;50546;49.146;10.616;2022-10-26T03:36:24;96368.47;;;12.70;81.32
64228;BME280;50546;49.146;10.616;2022-10-26T03:38:49;96369.00;;;12.64;81.25
64228;BME280;50546;49.146;10.616;2022-10-26T03:41:14;96378.03;;;12.68;81.73
64228;BME280;50546;49.146;10.616;2022-10-26T03:43:40;96379.53;;;12.57;82.44
64228;BME280;50546;49.146;10.616;2022-10-26T03:46:05;96373.13;;;12.61;82.61
64228;BME280;50546;49.146;10.616;2022-10-26T03:48:30;96370.59;;;12.56;83.89
64228;BME280;50546;49.146;10.616;2022-10-26T03:50:57;96367.03;;;12.43;84.80
64228;BME280;50546;49.146;10.616;2022-10-26T03:53:23;96378.63;;;12.44;85.66
64228;BME280;50546;49.146;10.616;2022-10-26T03:55:48;96396.81;;;12.26;86.14
64228;BME280;50546;49.146;10.616;2022-10-26T03:58:13;96395.41;;;12.28;86.49
64228;BME280;50546;49.146;10.616;2022-10-26T04:00:38;96388.13;;;12.20;86.43
64228;BME280;50546;49.146;10.616;2022-10-26T04:03:04;96385.00;;;12.10;87.55
64228;BME280;50546;49.146;10.616;2022-10-26T04:05:29;96394.38;;;12.03;88.31
64228;BME280;50546;49.146;10.616;2022-10-26T04:07:59;96394.41;;;11.95;88.32
64228;BME280;50546;49.146;10.616;2022-10-26T04:10:27;96393.75;;;11.98;88.51
64228;BME280;50546;49.146;10.616;2022-10-26T04:12:53;96411.84;;;12.06;88.56
64228;BME280;50546;49.146;10.616;2022-10-26T04:15:19;96413.56;;;12.11;88.04
64228;BME280;50546;49.146;10.616;2022-10-26T04:17:45;96407.81;;;12.21;87.30
64228;BME280;50546;49.146;10.616;2022-10-26T04:20:11;96401.09;;;12.36;86.71
64228;BME280;50546;49.146;10.616;2022-10-26T04:22:37;96409.75;;;12.50;86.09
64228;BME280;50546;49.146;10.616;2022-10-26T04:25:03;96411.34;;;12.51;85.83
64228;BME280;50546;49.146;10.616;2022-10-26T04:27:29;96409.28;;;12.48;85.75
64228;BME280;50546;49.146;10.616;2022-10-26T04:29:54;96415.81;;;12.47;85.82
64228;BME280;50546;49.146;10.616;2022-10-26T04:32:19;96418.41;;;12.35;86.39
64228;BME280;50546;49.146;10.616;2022-10-26T04:34:45;96420.69;;;12.24;87.22
64228;BME280;50546;49.146;10.616;2022-10-26T04:37:10;96424.03;;;12.12;87.58
64228;BME280;50546;49.146;10.616;2022-10-26T04:39:35;96424.22;;;12.07;87.92
64228;BME280;50546;49.146;10.616;2022-10-26T04:42:00;96425.94;;;12.20;87.29
64228;BME280;50546;49.146;10.616;2022-10-26T04:44:26;96430.03;;;12.26;87.02
64228;BME280;50546;49.146;10.616;2022-10-26T04:46:51;96423.34;;;12.33;86.89
64228;BME280;50546;49.146;10.616;2022-10-26T04:49:16;96415.44;;;12.57;86.34
64228;BME280;50546;49.146;10.616;2022-10-26T04:51:42;96417.03;;;12.58;85.49
64228;BME280;50546;49.146;10.616;2022-10-26T04:54:07;96427.88;;;12.49;86.02
64228;BME280;50546;49.146;10.616;2022-10-26T04:56:32;96424.13;;;12.42;86.29
64228;BME280;50546;49.146;10.616;2022-10-26T04:58:58;96430.31;;;12.34;86.81
64228;BME280;50546;49.146;10.616;2022-10-26T05:01:23;96420.16;;;12.39;86.84
64228;BME280;50546;49.146;10.616;2022-10-26T05:03:50;96410.88;;;12.49;86.38
64228;BME280;50546;49.146;10.616;2022-10-26T05:06:15;96404.38;;;12.50;86.28
64228;BME280;50546;49.146;10.616;2022-10-26T05:08:40;96401.75;;;12.62;85.69
64228;BME280;50546;49.146;10.616;2022-10-26T05:11:06;96402.53;;;12.63;85.48
64228;BME280;50546;49.146;10.616;2022-10-26T05:13:31;96412.63;;;12.45;86.14
64228;BME280;50546;49.146;10.616;2022-10-26T05:15:56;96418.28;;;12.22;87.57
64228;BME280;50546;49.146;10.616;2022-10-26T05:18:22;96423.44;;;12.07;88.50
64228;BME280;50546;49.146;10.616;2022-10-26T05:20:47;96442.38;;;11.89;89.40
64228;BME280;50546;49.146;10.616;2022-10-26T05:23:14;96440.00;;;11.88;89.90
64228;BME280;50546;49.146;10.616;2022-10-26T05:25:42;96435.06;;;11.90;89.84
64228;BME280;50546;49.146;10.616;2022-10-26T05:28:09;96431.25;;;11.91;89.86
64228;BME280;50546;49.146;10.616;2022-10-26T05:30:40;96420.94;;;11.93;89.31
64228;BME280;50546;49.146;10.616;2022-10-26T05:33:08;96415.88;;;11.91;89.34
64228;BME280;50546;49.146;10.616;2022-10-26T05:35:33;96411.09;;;11.88;89.58
64228;BME280;50546;49.146;10.616;2022-10-26T05:37:59;96406.16;;;11.90;89.34
64228;BME280;50546;49.146;10.616;2022-10-26T05:40:24;96391.88;;;11.90;89.25
64228;BME280;50546;49.146;10.616;2022-10-26T05:42:50;96397.13;;;11.86;89.92
64228;BME280;50546;49.146;10.616;2022-10-26T05:45:16;96393.44;;;11.82;89.52
64228;BME280;50546;49.146;10.616;2022-10-26T05:47:45;96387.91;;;11.78;89.96
64228;BME280;50546;49.146;10.616;2022-10-26T05:50:11;96396.47;;;11.80;89.83
64228;BME280;50546;49.146;10.616;2022-10-26T05:52:41;96386.00;;;11.79;90.24
64228;BME280;50546;49.146;10.616;2022-10-26T05:55:07;96387.13;;;11.78;90.30
64228;BME280;50546;49.146;10.616;2022-10-26T05:57:34;96382.84;;;11.77;90.16
64228;BME280;50546;49.146;10.616;2022-10-26T05:59:59;96389.81;;;11.78;90.44
64228;BME280;50546;49.146;10.616;2022-10-26T06:02:31;96396.16;;;11.91;89.73
64228;BME280;50546;49.146;10.616;2022-10-26T06:05:02;96405.91;;;12.13;88.80
64228;BME280;50546;49.146;10.616;2022-10-26T06:07:28;96415.53;;;12.40;87.10
64228;BME280;50546;49.146;10.616;2022-10-26T06:09:53;96402.66;;;12.66;85.97
64228;BME280;50546;49.146;10.616;2022-10-26T06:12:19;96399.94;;;12.75;85.00
64228;BME280;50546;49.146;10.616;2022-10-26T06:14:44;96398.84;;;12.97;84.28
64228;BME280;50546;49.146;10.616;2022-10-26T06:20:02;96404.38;;;12.50;85.64
64228;BME280;50546;49.146;10.616;2022-10-26T06:22:43;96425.13;;;12.20;87.59
64228;BME280;50546;49.146;10.616;2022-10-26T06:31:14;96424.88;;;12.04;88.59
64228;BME280;50546;49.146;10.616;2022-10-26T06:33:40;96445.56;;;11.91;89.23
64228;BME280;50546;49.146;10.616;2022-10-26T06:36:22;96433.16;;;11.99;89.40
64228;BME280;50546;49.146;10.616;2022-10-26T06:39:03;96420.44;;;11.91;89.41
64228;BME280;50546;49.146;10.616;2022-10-26T06:41:33;96448.41;;;11.95;89.70
64228;BME280;50546;49.146;10.616;2022-10-26T06:43:59;96425.84;;;11.99;88.73
64228;BME280;50546;49.146;10.616;2022-10-26T06:46:42;96442.19;;;12.03;89.03
64228;BME280;50546;49.146;10.616;2022-10-26T06:49:16;96432.50;;;12.02;89.22
64228;BME280;50546;49.146;10.616;2022-10-26T06:51:50;96443.81;;;11.95;88.95
64228;BME280;50546;49.146;10.616;2022-10-26T06:57:01;96429.03;;;11.93;89.87
64228;BME280;50546;49.146;10.616;2022-10-26T06:59:39;96441.25;;;11.90;90.11
64228;BME280;50546;49.146;10.616;2022-10-26T07:02:08;96435.84;;;11.90;90.37
64228;BME280;50546;49.146;10.616;2022-10-26T07:04:35;96440.78;;;11.88;90.15
64228;BME280;50546;49.146;10.616;2022-10-26T07:07:01;96447.78;;;11.89;90.50
64228;BME280;50546;49.146;10.616;2022-10-26T07:09:26;96438.41;;;11.87;90.29
64228;BME280;50546;49.146;10.616;2022-10-26T07:11:51;96455.72;;;11.86;90.71
64228;BME280;50546;49.146;10.616;2022-10-26T07:14:17;96448.75;;;11.85;90.91
64228;BME280;50546;49.146;10.616;2022-10-26T07:16:42;96447.13;;;11.84;90.94
64228;BME280;50546;49.146;10.616;2022-10-26T07:19:07;96439.84;;;11.84;91.16
64228;BME280;50546;49.146;10.616;2022-10-26T07:21:33;96451.44;;;11.85;91.17
64228;BME280;50546;49.146;10.616;2022-10-26T07:23:58;96455.38;;;11.87;91.03
64228;BME280;50546;49.146;10.616;2022-10-26T07:26:23;96448.41;;;11.86;91.14
64228;BME280;50546;49.146;10.616;2022-10-26T07:28:50;96471.59;;;11.87;91.14
64228;BME280;50546;49.146;10.616;2022-10-26T07:31:15;96472.41;;;11.88;90.98
64228;BME280;50546;49.146;10.616;2022-10-26T07:33:40;96478.25;;;11.90;91.60
64228;BME280;50546;49.146;10.616;2022-10-26T07:36:07;96486.06;;;11.91;91.69
64228;BME280;50546;49.146;10.616;2022-10-26T07:38:35;96486.84;;;11.92;91.50
64228;BME280;50546;49.146;10.616;2022-10-26T07:41:00;96465.69;;;11.94;91.64
64228;BME280;50546;49.146;10.616;2022-10-26T07:43:26;96473.81;;;11.94;91.41
64228;BME280;50546;49.146;10.616;2022-10-26T07:45:51;96491.13;;;11.93;91.94
64228;BME280;50546;49.146;10.616;2022-10-26T07:48:17;96483.50;;;11.95;91.69
64228;BME280;50546;49.146;10.616;2022-10-26T07:50:42;96492.84;;;11.97;91.61
64228;BME280;50546;49.146;10.616;2022-10-26T07:53:07;96507.47;;;11.96;92.04
64228;BME280;50546;49.146;10.616;2022-10-26T07:55:33;96506.50;;;12.01;92.13
64228;BME280;50546;49.146;10.616;2022-10-26T07:57:58;96516.38;;;12.06;91.37
64228;BME280;50546;49.146;10.616;2022-10-26T08:00:23;96529.22;;;12.09;91.71
64228;BME280;50546;49.146;10.616;2022-10-26T08:02:50;96520.63;;;12.15;91.52
64228;BME280;50546;49.146;10.616;2022-10-26T08:05:15;96522.88;;;12.13;91.33
64228;BME280;50546;49.146;10.616;2022-10-26T08:07:42;96523.66;;;12.14;91.19
64228;BME280;50546;49.146;10.616;2022-10-26T08:10:09;96526.81;;;12.24;90.77
64228;BME280;50546;49.146;10.616;2022-10-26T08:12:34;96532.53;;;12.32;90.53
64228;BME280;50546;49.146;10.616;2022-10-26T08:15:00;96523.91;;;12.47;90.06
64228;BME280;50546;49.146;10.616;2022-10-26T08:17:25;96518.75;;;12.63;89.34
64228;BME280;50546;49.146;10.616;2022-10-26T08:19:50;96531.56;;;12.83;88.77
64228;BME280;50546;49.146;10.616;2022-10-26T08:22:16;96541.53;;;13.00;87.61
64228;BME280;50546;49.146;10.616;2022-10-26T08:24:41;96529.00;;;13.16;87.36
64228;BME280;50546;49.146;10.616;2022-10-26T08:27:08;96532.56;;;13.08;88.00
64228;BME280;50546;49.146;10.616;2022-10-26T08:29:33;96535.56;;;13.07;87.67
64228;BME280;50546;49.146;10.616;2022-10-26T08:31:58;96529.94;;;13.20;88.03
64228;BME280;50546;49.146;10.616;2022-10-26T08:34:24;96530.31;;;13.10;87.90
64228;BME280;50546;49.146;10.616;2022-10-26T08:36:49;96530.72;;;13.21;87.40
64228;BME280;50546;49.146;10.616;2022-10-26T08:39:14;96533.72;;;13.37;86.63
64228;BME280;50546;49.146;10.616;2022-10-26T08:41:42;96543.88;;;13.61;86.20
64228;BME280;50546;49.146;10.616;2022-10-26T08:47:00;96544.03;;;14.06;83.42
64228;BME280;50546;49.146;10.616;2022-10-26T08:49:39;96541.84;;;14.00;83.57
64228;BME280;50546;49.146;10.616;2022-10-26T08:52:10;96538.59;;;14.06;83.01
64228;BME280;50546;49.146;10.616;2022-10-26T08:54:39;96541.09;;;14.11;83.42
64228;BME280;50546;49.146;10.616;2022-10-26T08:57:18;96543.03;;;14.23;83.46
64228;BME280;50546;49.146;10.616;2022-10-26T08:59:53;96552.53;;;14.17;82.87
64228;BME280;50546;49.146;10.616;2022-10-26T09:02:20;96551.75;;;14.16;83.40
64228;BME280;50546;49.146;10.616;2022-10-26T09:04:46;96557.72;;;14.22;81.95
64228;BME280;50546;49.146;10.616;2022-10-26T09:07:47;96549.56;;;14.10;83.59
64228;BME280;50546;49.146;10.616;2022-10-26T09:13:24;96557.63;;;13.56;86.08
64228;BME280;50546;49.146;10.616;2022-10-26T09:16:12;96563.63;;;13.40;87.01
64228;BME280;50546;49.146;10.616;2022-10-26T09:21:42;96565.59;;;13.52;86.19
64228;BME280;50546;49.146;10.616;2022-10-26T09:24:13;96565.22;;;13.62;86.22
64228;BME280;50546;49.146;10.616;2022-10-26T09:26:55;96574.28;;;13.66;85.62
64228;BME280;50546;49.146;10.616;2022-10-26T09:29:28;96569.25;;;13.77;85.55
64228;BME280;50546;49.146;10.616;2022-10-26T09:31:56;96573.16;;;13.88;85.54
64228;BME280;50546;49.146;10.616;2022-10-26T09:36:55;96572.69;;;14.07;84.29
64228;BME280;50546;49.146;10.616;2022-10-26T09:39:25;96573.56;;;13.99;84.54
64228;BME280;50546;49.146;10.616;2022-10-26T09:41:57;96570.44;;;13.88;84.97
64228;BME280;50546;49.146;10.616;2022-10-26T09:44:30;96580.75;;;13.95;84.61
64228;BME280;50546;49.146;10.616;2022-10-26T09:47:06;96578.31;;;14.02;85.11
64228;BME280;50546;49.146;10.616;2022-10-26T09:49:40;96586.84;;;14.13;84.30
64228;BME280;50546;49.146;10.616;2022-10-26T09:52:08;96594.00;;;14.09;83.85
64228;BME280;50546;49.146;10.616;2022-10-26T09:54:34;96584.25;;;14.16;84.64
64228;BME280;50546;49.146;10.616;2022-10-26T09:56:59;96598.25;;;14.18;84.68
64228;BME280;50546;49.146;10.616;2022-10-26T09:59:29;96597.81;;;14.16;84.30
64228;BME280;50546;49.146;10.616;2022-10-26T10:01:57;96603.06;;;14.34;83.83
64228;BME280;50546;49.146;10.616;2022-10-26T10:04:23;96597.97;;;14.53;82.93
64228;BME280;50546;49.146;10.616;2022-10-26T10:09:27;96601.91;;;14.89;81.72
64228;BME280;50546;49.146;10.616;2022-10-26T10:11:57;96608.50;;;15.00;81.15
64228;BME280;50546;49.146;10.616;2022-10-26T10:14:28;96610.31;;;15.21;81.06
64228;BME280;50546;49.146;10.616;2022-10-26T10:16:59;96614.84;;;15.53;79.94
64228;BME280;50546;49.146;10.616;2022-10-26T10:19:30;96611.56;;;15.72;79.59
64228;BME280;50546;49.146;10.616;2022-10-26T10:22:23;96618.69;;;16.01;77.58
64228;BME280;50546;49.146;10.616;2022-10-26T10:27:21;96618.06;;;16.20;77.20
64228;BME280;50546;49.146;10.616;2022-10-26T10:29:52;96618.22;;;16.40;76.70
64228;BME280;50546;49.146;10.616;2022-10-26T10:32:29;96627.34;;;16.47;76.58
64228;BME280;50546;49.146;10.616;2022-10-26T10:34:57;96629.56;;;16.29;76.66
64228;BME280;50546;49.146;10.616;2022-10-26T10:37:29;96627.31;;;16.31;76.55
64228;BME280;50546;49.146;10.616;2022-10-26T10:40:00;96621.47;;;16.17;76.97
64228;BME280;50546;49.146;10.616;2022-10-26T10:42:30;96628.69;;;16.25;76.55
64228;BME280;50546;49.146;10.616;2022-10-26T10:44:57;96636.50;;;16.27;76.61
64228;BME280;50546;49.146;10.616;2022-10-26T10:47:26;96642.59;;;16.36;76.22
64228;BME280;50546;49.146;10.616;2022-10-26T10:49:55;96632.84;;;16.35;76.29
64228;BME280;50546;49.146;10.616;2022-10-26T10:52:27;96637.31;;;16.27;76.42
64228;BME280;50546;49.146;10.616;2022-10-26T10:55:17;96639.56;;;16.25;76.36
64228;BME280;50546;49.146;10.616;2022-10-26T10:58:23;96643.16;;;16.42;76.10
64228;BME280;50546;49.146;10.616;2022-10-26T11:00:52;96644.97;;;16.78;75.58
64228;BME280;50546;49.146;10.616;2022-10-26T11:03:39;96650.13;;;16.83;74.32
64228;BME280;50546;49.146;10.616;2022-10-26T11:06:22;96644.03;;;16.74;74.87
64228;BME280;50546;49.146;10.616;2022-10-26T11:11:34;96659.25;;;16.75;75.18
64228;BME280;50546;49.146;10.616;2022-10-26T11:14:05;96656.91;;;16.89;75.20
64228;BME280;50546;49.146;10.616;2022-10-26T11:16:41;96663.16;;;17.05;74.26
64228;BME280;50546;49.146;10.616;2022-10-26T11:19:30;96652.88;;;16.99;73.82
64228;BME280;50546;49.146;10.616;2022-10-26T11:21:57;96657.50;;;17.11;74.64
64228;BME280;50546;49.146;10.616;2022-10-26T11:24:30;96653.28;;;17.45;73.27
64228;BME280;50546;49.146;10.616;2022-10-26T11:27:11;96654.34;;;17.40;73.15
64228;BME280;50546;49.146;10.616;2022-10-26T11:32:30;96661.34;;;17.89;71.82
64228;BME280;50546;49.146;10.616;2022-10-26T11:40:27;96663.38;;;17.60;72.49
64228;BME280;50546;49.146;10.616;2022-10-26T11:45:41;96647.91;;;17.17;74.11
64228;BME280;50546;49.146;10.616;2022-10-26T11:48:27;96649.38;;;16.98;75.69
64228;BME280;50546;49.146;10.616;2022-10-26T11:50:58;96645.34;;;17.08;75.18
64228;BME280;50546;49.146;10.616;2022-10-26T11:53:27;96648.78;;;17.21;75.42
64228;BME280;50546;49.146;10.616;2022-10-26T11:55:56;96646.88;;;17.21;75.08
64228;BME280;50546;49.146;10.616;2022-10-26T11:58:25;96647.38;;;17.59;74.44
64228;BME280;50546;49.146;10.616;2022-10-26T12:00:57;96652.38;;;17.88;73.68
64228;BME280;50546;49.146;10.616;2022-10-26T12:03:27;96650.31;;;18.17;72.33
64228;BME280;50546;49.146;10.616;2022-10-26T12:05:53;96654.41;;;17.91;73.10
64228;BME280;50546;49.146;10.616;2022-10-26T12:08:59;96663.66;;;18.22;72.98
64228;BME280;50546;49.146;10.616;2022-10-26T12:11:44;96654.66;;;18.76;70.43
64228;BME280;50546;49.146;10.616;2022-10-26T12:14:27;96651.72;;;19.50;68.76
64228;BME280;50546;49.146;10.616;2022-10-26T12:17:08;96652.06;;;20.25;66.50
64228;BME280;50546;49.146;10.616;2022-10-26T12:19:50;96656.72;;;20.51;64.14
64228;BME280;50546;49.146;10.616;2022-10-26T12:22:19;96651.69;;;20.00;64.96
64228;BME280;50546;49.146;10.616;2022-10-26T12:35:28;96680.88;;;21.91;57.58
64228;BME280;50546;49.146;10.616;2022-10-26T12:37:54;96681.81;;;22.13;56.65
64228;BME280;50546;49.146;10.616;2022-10-26T12:49:01;96687.44;;;23.14;53.32
64228;BME280;50546;49.146;10.616;2022-10-26T12:54:01;96694.88;;;23.06;54.55
64228;BME280;50546;49.146;10.616;2022-10-26T12:56:59;96682.44;;;23.73;51.54
64228;BME280;50546;49.146;10.616;2022-10-26T12:59:30;96687.44;;;23.14;53.41
64228;BME280;50546;49.146;10.616;2022-10-26T13:07:32;96690.31;;;22.00;56.84
64228;BME280;50546;49.146;10.616;2022-10-26T13:10:16;96688.56;;;22.26;55.94
64228;BME280;50546;49.146;10.616;2022-10-26T13:15:27;96676.38;;;24.71;50.15
64228;BME280;50546;49.146;10.616;2022-10-26T13:17:57;96679.50;;;24.81;48.99
64228;BME280;50546;49.146;10.616;2022-10-26T13:23:23;96692.28;;;25.30;47.91
64228;BME280;50546;49.146;10.616;2022-10-26T13:26:05;96693.34;;;24.63;49.22
64228;BME280;50546;49.146;10.616;2022-10-26T13:28:42;96689.41;;;24.67;48.47
64228;BME280;50546;49.146;10.616;2022-10-26T13:31:57;96686.81;;;25.19;48.58
64228;BME280;50546;49.146;10.616;2022-10-26T13:34:01;96680.47;;;25.85;46.61
64228;BME280;50546;49.146;10.616;2022-10-26T13:36:40;96687.53;;;25.93;46.22
64228;BME280;50546;49.146;10.616;2022-10-26T13:39:19;96680.97;;;26.94;44.19
64228;BME280;50546;49.146;10.616;2022-10-26T13:41:48;96693.22;;;26.62;44.14
64228;BME280;50546;49.146;10.616;2022-10-26T13:44:24;96685.84;;;26.03;45.34
64228;BME280;50546;49.146;10.616;2022-10-26T13:46:58;96687.69;;;25.06;46.97
64228;BME280;50546;49.146;10.616;2022-10-26T13:49:35;96689.88;;;23.55;50.14
64228;BME280;50546;49.146;10.616;2022-10-26T13:52:02;96697.31;;;23.51;51.81
64228;BME280;50546;49.146;10.616;2022-10-26T13:54:35;96697.72;;;23.42;53.13
64228;BME280;50546;49.146;10.616;2022-10-26T13:57:11;96709.81;;;23.16;53.57
64228;BME280;50546;49.146;10.616;2022-10-26T13:59:42;96712.97;;;23.15;53.87
64228;BME280;50546;49.146;10.616;2022-10-26T14:02:28;96721.44;;;22.77;53.68
64228;BME280;50546;49.146;10.616;2022-10-26T14:05:00;96723.19;;;22.38;54.03
64228;BME280;50546;49.146;10.616;2022-10-26T14:07:35;96723.22;;;22.45;54.64
64228;BME280;50546;49.146;10.616;2022-10-26T14:10:02;96731.53;;;22.04;55.32
64228;BME280;50546;49.146;10.616;2022-10-26T14:12:28;96735.97;;;21.75;55.96
64228;BME280;50546;49.146;10.616;2022-10-26T14:15:13;96728.81;;;21.63;56.10
64228;BME280;50546;49.146;10.616;2022-10-26T14:17:39;96734.53;;;21.44;57.31
64228;BME280;50546;49.146;10.616;2022-10-26T14:20:05;96733.78;;;21.16;57.81
64228;BME280;50546;49.146;10.616;2022-10-26T14:22:30;96734.50;;;21.06;57.93
64228;BME280;50546;49.146;10.616;2022-10-26T14:25:00;96734.28;;;20.88;57.35
64228;BME280;50546;49.146;10.616;2022-10-26T14:27:37;96735.09;;;20.62;58.51
64228;BME280;50546;49.146;10.616;2022-10-26T14:30:20;96742.28;;;20.48;58.84
64228;BME280;50546;49.146;10.616;2022-10-26T14:32:46;96745.31;;;20.39;59.74
64228;BME280;50546;49.146;10.616;2022-10-26T14:35:12;96740.38;;;20.48;59.86
64228;BME280;50546;49.146;10.616;2022-10-26T14:37:44;96751.16;;;20.37;59.82
64228;BME280;50546;49.146;10.616;2022-10-26T14:40:37;96748.00;;;20.62;59.56
64228;BME280;50546;49.146;10.616;2022-10-26T14:43:04;96747.31;;;20.68;59.25
64228;BME280;50546;49.146;10.616;2022-10-26T14:45:31;96750.63;;;20.81;59.18
64228;BME280;50546;49.146;10.616;2022-10-26T14:47:59;96746.38;;;20.87;58.58
64228;BME280;50546;49.146;10.616;2022-10-26T14:50:26;96757.44;;;20.64;58.89
64228;BME280;50546;49.146;10.616;2022-10-26T14:52:58;96756.75;;;20.71;59.83
64228;BME280;50546;49.146;10.616;2022-10-26T14:55:26;96759.19;;;20.50;59.74